Terminal Aerodrome Forecast
Issued by NWS

Home | Current Version | Previous Version | Text Only | Print | Product List | Glossary On
Versions: 1 2 3 4 5 6 7 8 9 10 11 12 13 14
514
FTUS42 KMHX 031721
TAFISO
TAF
KISO 031721Z 0318/0418 35009KT P6SM SKC
     FM040000 VRB03KT P6SM SCT150
     FM040900 00000KT P6SM BKN090
      AMD LTD TO CLD VIS AND WIND=

USA.gov is the U.S. government's official web portal to all federal, state and local government web resources and services.